createdAt,value
2019-03-03T00:00:12.952Z,80.33
2019-03-03T00:02:43.139Z,80.28
2019-03-03T00:05:13.500Z,79.52
2019-03-03T00:07:43.815Z,79.47
2019-03-03T00:10:14.179Z,78.72
2019-03-03T00:12:44.262Z,78.58
2019-03-03T00:15:14.572Z,79.04
2019-03-03T00:17:45.074Z,79.02
2019-03-03T00:20:16.224Z,79.85
2019-03-03T00:22:46.929Z,79.56
2019-03-03T00:25:17.330Z,79.60
2019-03-03T00:27:47.675Z,80.01
2019-03-03T00:30:18.618Z,79.87
2019-03-03T00:32:49.030Z,80.46
2019-03-03T00:35:19.264Z,80.53
2019-03-03T00:38:12.358Z,80.84
2019-03-03T00:41:04.629Z,80.23
2019-03-03T00:43:46.614Z,80.12
2019-03-03T00:46:34.422Z,79.79
2019-03-03T00:49:41.634Z,80.20
2019-03-03T00:52:17.537Z,79.78
2019-03-03T00:55:04.430Z,80.11
2019-03-03T00:57:52.487Z,80.00
2019-03-03T01:00:43.847Z,79.54
2019-03-03T01:03:19.149Z,80.48
2019-03-03T01:06:01.942Z,79.99
2019-03-03T01:08:48.304Z,80.24
2019-03-03T01:11:34.344Z,80.01
2019-03-03T01:14:14.823Z,80.20
2019-03-03T01:17:00.647Z,80.51
2019-03-03T01:19:47.407Z,80.55
2019-03-03T01:22:39.576Z,79.67
2019-03-03T01:25:09.807Z,80.08
2019-03-03T01:27:40.200Z,80.11
2019-03-03T01:30:11.773Z,79.45
2019-03-03T01:32:43.576Z,79.37
2019-03-03T01:35:16.600Z,78.99
2019-03-03T01:37:46.724Z,79.80
2019-03-03T01:40:17.204Z,80.01
2019-03-03T01:42:47.338Z,79.79
2019-03-03T01:45:17.796Z,79.51
2019-03-03T01:47:48.196Z,79.11
2019-03-03T01:50:18.473Z,77.60
2019-03-03T01:52:48.666Z,77.06
2019-03-03T01:55:18.983Z,77.30
2019-03-03T01:57:49.781Z,77.57
2019-03-03T02:00:26.441Z,78.33
2019-03-03T02:02:57.382Z,78.69
2019-03-03T02:05:27.633Z,78.40
2019-03-03T02:07:57.729Z,77.50
2019-03-03T02:10:27.935Z,76.41
2019-03-03T02:12:58.166Z,75.94
2019-03-03T02:15:28.694Z,75.97
2019-03-03T02:17:58.894Z,76.80
2019-03-03T02:20:29.233Z,75.52
2019-03-03T02:22:59.696Z,75.47
2019-03-03T02:25:30.170Z,76.09
2019-03-03T02:28:00.340Z,76.37
2019-03-03T02:30:30.503Z,75.78
2019-03-03T02:33:00.664Z,75.85
2019-03-03T02:35:33.203Z,77.08
2019-03-03T02:38:03.320Z,77.25
2019-03-03T02:40:33.763Z,75.99
2019-03-03T02:43:03.943Z,75.60
2019-03-03T02:45:34.013Z,75.67
2019-03-03T02:48:04.232Z,76.21
2019-03-03T02:50:34.602Z,75.59
2019-03-03T02:53:04.745Z,75.75
2019-03-03T02:55:34.906Z,75.83
2019-03-03T02:58:05.221Z,76.27
2019-03-03T03:00:37.208Z,76.95
2019-03-03T03:03:11.283Z,77.04
2019-03-03T03:06:10.744Z,77.67
2019-03-03T03:08:58.303Z,78.30
2019-03-03T03:11:54.887Z,79.23
2019-03-03T03:14:43.925Z,79.56
2019-03-03T03:17:32.116Z,80.34
2019-03-03T03:20:23.940Z,80.94
2019-03-03T03:23:00.841Z,81.08
2019-03-03T03:25:50.015Z,81.02
2019-03-03T03:28:40.271Z,80.76
2019-03-03T03:31:35.187Z,80.51
2019-03-03T03:34:24.580Z,80.15
2019-03-03T03:37:08.467Z,80.57
2019-03-03T03:40:00.886Z,81.30
2019-03-03T03:42:44.706Z,81.65
2019-03-03T03:45:26.577Z,81.88
2019-03-03T03:48:21.548Z,82.10
2019-03-03T03:51:03.307Z,82.62
2019-03-03T03:53:47.019Z,82.65
2019-03-03T03:56:33.071Z,82.34
2019-03-03T03:59:15.026Z,82.09
2019-03-03T04:02:04.392Z,82.44
2019-03-03T04:04:56.505Z,83.21
2019-03-03T04:07:53.104Z,83.36
2019-03-03T04:10:39.210Z,84.12
2019-03-03T04:13:21.944Z,84.40
2019-03-03T04:16:04.295Z,83.66
2019-03-03T04:18:49.098Z,83.67
2019-03-03T04:21:28.185Z,84.39
2019-03-03T04:24:16.024Z,84.48
2019-03-03T04:26:55.997Z,85.12
2019-03-03T04:29:48.210Z,85.02
2019-03-03T04:32:27.627Z,85.87
2019-03-03T04:35:17.083Z,85.42
2019-03-03T04:38:11.959Z,84.71
2019-03-03T04:40:54.923Z,84.91
2019-03-03T04:43:29.886Z,85.21
2019-03-03T04:46:17.421Z,85.75
2019-03-03T04:49:06.522Z,85.79
2019-03-03T04:51:55.888Z,86.16
2019-03-03T04:54:48.861Z,86.32
2019-03-03T04:57:41.250Z,86.54
2019-03-03T05:00:31.371Z,87.35
2019-03-03T05:03:32.515Z,87.38
2019-03-03T05:06:21.081Z,87.78
2019-03-03T05:09:06.891Z,88.86
2019-03-03T05:12:42.075Z,88.50
2019-03-03T05:15:34.635Z,88.85
2019-03-03T05:18:18.927Z,88.59
2019-03-03T05:20:50.725Z,88.67
2019-03-03T05:23:23.234Z,88.73
2019-03-03T05:25:53.661Z,88.31
2019-03-03T05:28:23.850Z,89.34
2019-03-03T05:30:54.440Z,89.31
2019-03-03T05:33:24.587Z,89.70
2019-03-03T05:35:54.740Z,90.37
2019-03-03T05:38:27.480Z,90.50
2019-03-03T05:40:57.628Z,90.89
2019-03-03T05:43:27.757Z,90.89
2019-03-03T05:45:57.934Z,90.73
2019-03-03T05:48:29.365Z,90.62
2019-03-03T05:50:59.576Z,91.11
2019-03-03T05:53:30.065Z,91.54
2019-03-03T05:56:00.157Z,91.75
2019-03-03T05:58:30.321Z,91.54
2019-03-03T06:01:00.525Z,91.67
2019-03-03T06:03:30.977Z,91.24
2019-03-03T06:06:01.173Z,91.36
2019-03-03T06:08:31.364Z,91.14
2019-03-03T06:11:01.534Z,91.26
2019-03-03T06:13:31.656Z,91.77
2019-03-03T06:16:01.881Z,91.66
2019-03-03T06:18:34.431Z,91.40
2019-03-03T06:21:04.670Z,91.34
2019-03-03T06:23:34.801Z,91.14
2019-03-03T06:26:05.129Z,91.66
2019-03-03T06:28:41.414Z,92.32
2019-03-03T06:31:11.559Z,91.90
2019-03-03T06:33:41.710Z,91.97
2019-03-03T06:36:11.846Z,91.95
2019-03-03T06:38:43.435Z,91.84
2019-03-03T06:41:13.494Z,91.59
2019-03-03T06:43:44.972Z,90.47
2019-03-03T06:46:16.233Z,90.66
2019-03-03T06:48:46.590Z,90.38
2019-03-03T06:51:16.808Z,89.79
2019-03-03T06:53:47.021Z,89.55
2019-03-03T06:56:17.814Z,89.25
2019-03-03T06:58:48.215Z,88.52
2019-03-03T07:01:18.389Z,88.14
2019-03-03T07:03:48.536Z,87.88
2019-03-03T07:06:18.930Z,86.46
2019-03-03T07:08:49.101Z,85.74
2019-03-03T07:11:19.272Z,85.58
2019-03-03T07:13:49.420Z,85.21
2019-03-03T07:16:19.521Z,84.53
2019-03-03T07:18:49.686Z,83.56
2019-03-03T07:21:20.146Z,82.95
2019-03-03T07:23:50.331Z,82.52
2019-03-03T07:26:20.720Z,81.83
2019-03-03T14:56:33.985Z,52.37
2019-03-03T14:59:05.205Z,52.40
2019-03-03T15:01:36.023Z,52.52
2019-03-03T15:04:06.668Z,52.16
2019-03-03T15:06:36.803Z,52.17
2019-03-03T15:09:20.429Z,52.56
2019-03-03T15:11:50.554Z,52.46
2019-03-03T15:14:20.738Z,52.79
2019-03-03T15:16:50.872Z,53.22
2019-03-03T15:19:22.366Z,53.39
2019-03-03T15:21:52.568Z,53.64
2019-03-03T15:24:22.950Z,54.07
2019-03-03T15:26:53.429Z,54.62
2019-03-03T15:29:23.549Z,54.40
2019-03-03T15:31:54.760Z,54.44
2019-03-03T15:34:24.998Z,55.16
2019-03-03T15:36:55.426Z,54.85
2019-03-03T15:39:26.192Z,54.42
2019-03-03T15:41:56.422Z,54.74
2019-03-03T15:44:28.695Z,54.54
2019-03-03T15:46:58.984Z,54.71
2019-03-03T15:49:32.303Z,55.18
2019-03-03T15:52:02.693Z,55.26
2019-03-03T15:54:32.831Z,55.39
2019-03-03T15:57:03.281Z,54.92
2019-03-03T15:59:33.452Z,55.01
2019-03-03T16:02:06.552Z,55.48
2019-03-03T16:04:36.654Z,55.57
2019-03-03T16:07:06.857Z,55.74
2019-03-03T16:09:36.989Z,55.09
2019-03-03T16:12:09.535Z,55.27
2019-03-03T16:14:39.710Z,55.46
2019-03-03T16:17:09.851Z,55.72
2019-03-03T16:19:40.378Z,56.05
2019-03-03T16:22:10.561Z,55.95
2019-03-03T16:24:41.020Z,56.07
2019-03-03T16:27:11.146Z,56.36
2019-03-03T16:29:42.978Z,56.74
2019-03-03T16:32:13.260Z,56.58
2019-03-03T16:34:43.489Z,57.05
2019-03-03T16:37:13.646Z,57.45
2019-03-03T16:39:44.048Z,57.38
2019-03-03T16:42:14.242Z,57.61
2019-03-03T16:44:44.442Z,57.80
2019-03-03T16:47:15.125Z,59.27
2019-03-03T16:49:48.348Z,58.54
2019-03-03T16:52:18.489Z,58.46
2019-03-03T16:54:48.892Z,58.74
2019-03-03T16:57:19.960Z,59.14
2019-03-03T16:59:50.129Z,60.55
2019-03-03T17:02:20.332Z,60.01
2019-03-03T17:04:50.772Z,59.06
2019-03-03T17:07:20.981Z,58.88
2019-03-03T17:09:51.104Z,59.40
2019-03-03T17:12:21.346Z,59.40
2019-03-03T17:14:51.499Z,58.86
2019-03-03T17:17:21.842Z,58.96
2019-03-03T17:19:52.326Z,59.24
2019-03-03T17:22:22.441Z,59.11
2019-03-03T17:24:52.558Z,59.36
2019-03-03T17:27:22.953Z,58.88
2019-03-03T17:29:54.375Z,59.25
2019-03-03T17:32:24.468Z,59.18
2019-03-03T17:34:54.612Z,58.73
2019-03-03T17:37:24.874Z,58.97
2019-03-03T17:39:55.157Z,58.91
2019-03-03T17:42:25.335Z,59.23
2019-03-03T17:44:56.786Z,59.63
2019-03-03T17:47:27.267Z,59.67
2019-03-03T17:49:57.383Z,60.14
2019-03-03T17:52:27.523Z,60.20
2019-03-03T17:54:57.731Z,60.19
2019-03-03T17:57:28.588Z,60.81
2019-03-03T17:59:58.848Z,60.98
2019-03-03T18:02:29.035Z,60.76
2019-03-03T18:04:59.196Z,61.12
2019-03-03T18:07:30.548Z,61.65
2019-03-03T18:10:00.776Z,62.32
2019-03-03T18:12:30.853Z,62.35
2019-03-03T18:15:20.818Z,63.46
2019-03-03T18:17:51.039Z,63.38
2019-03-03T18:20:21.293Z,63.67
2019-03-03T18:22:51.697Z,64.60
2019-03-03T18:25:23.238Z,64.95
2019-03-03T18:27:53.991Z,64.52
2019-03-03T18:30:24.374Z,64.53
2019-03-03T18:32:54.603Z,65.19
2019-03-03T18:35:25.108Z,64.88
2019-03-03T18:37:58.143Z,65.15
2019-03-03T18:40:30.811Z,65.93
2019-03-03T18:43:01.249Z,66.06
2019-03-03T18:45:31.506Z,66.43
2019-03-03T18:48:01.715Z,66.98
2019-03-03T18:50:31.847Z,67.85
2019-03-03T18:53:01.949Z,68.70
2019-03-03T18:55:32.439Z,67.71
2019-03-03T18:58:02.620Z,69.65
2019-03-03T19:00:32.828Z,70.54
2019-03-03T19:03:02.987Z,70.79
2019-03-03T19:05:33.185Z,70.77
2019-03-03T19:08:03.280Z,70.76
2019-03-03T19:10:33.780Z,70.96
2019-03-03T19:13:04.981Z,70.83
2019-03-03T19:15:36.168Z,71.62
2019-03-03T19:18:06.655Z,72.04
2019-03-03T19:20:36.818Z,71.68
2019-03-03T19:23:07.258Z,72.51
2019-03-03T19:25:43.668Z,72.91
2019-03-03T19:28:16.136Z,72.57
2019-03-03T19:30:46.440Z,72.65
2019-03-03T19:33:28.089Z,72.30
2019-03-03T19:36:01.108Z,71.76
2019-03-03T19:38:31.658Z,71.37
2019-03-03T19:41:07.136Z,71.10
2019-03-03T19:43:37.499Z,71.61
2019-03-03T19:46:08.377Z,72.23
2019-03-03T19:48:39.622Z,72.82
2019-03-03T19:51:11.143Z,72.30
2019-03-03T19:53:52.457Z,71.95
2019-03-03T19:56:22.739Z,71.24
2019-03-03T19:58:53.667Z,69.90
2019-03-03T20:01:26.507Z,70.68
2019-03-03T20:03:57.107Z,69.48
2019-03-03T20:06:27.448Z,69.13
2019-03-03T20:08:58.955Z,69.31
2019-03-03T20:11:30.888Z,69.08
2019-03-03T20:14:04.392Z,69.58
2019-03-03T20:16:36.492Z,70.77
2019-03-03T20:19:08.805Z,70.33
2019-03-03T20:22:37.665Z,69.98
2019-03-03T20:25:25.775Z,70.63
2019-03-03T20:28:11.584Z,70.26
2019-03-03T20:31:05.181Z,71.23
2019-03-03T20:33:52.100Z,71.39
2019-03-03T20:36:23.797Z,72.62
2019-03-03T20:38:53.964Z,71.84
2019-03-03T20:41:24.508Z,71.01
2019-03-03T20:43:54.832Z,72.14
2019-03-03T20:46:25.003Z,71.52
2019-03-03T20:48:55.125Z,71.51
2019-03-03T20:51:25.301Z,71.50
2019-03-03T20:53:55.422Z,71.38
2019-03-03T20:56:25.556Z,71.89
2019-03-03T20:58:55.821Z,72.31
2019-03-03T21:01:35.260Z,72.65
2019-03-03T21:04:08.543Z,73.29
2019-03-03T21:06:46.440Z,72.95
2019-03-03T21:09:16.929Z,73.44
2019-03-03T21:11:50.756Z,73.73
2019-03-03T21:14:21.839Z,72.54
2019-03-03T21:16:58.501Z,73.41
2019-03-03T21:19:29.989Z,74.35
2019-03-03T21:22:01.886Z,75.37
2019-03-03T21:24:31.982Z,76.24
2019-03-03T21:27:03.462Z,77.59
2019-03-03T21:29:35.318Z,77.55
2019-03-03T21:32:06.049Z,77.38
2019-03-03T21:34:36.742Z,77.14
2019-03-03T21:37:07.783Z,76.69
2019-03-03T21:39:37.997Z,77.11
2019-03-03T21:42:08.249Z,76.39
2019-03-03T21:44:38.485Z,76.72
2019-03-03T21:47:11.830Z,77.61
2019-03-03T21:49:41.996Z,77.84
2019-03-03T21:52:12.149Z,77.98
2019-03-03T21:54:42.577Z,78.29
2019-03-03T21:57:12.859Z,78.73
2019-03-03T21:59:43.696Z,78.80
2019-03-03T22:02:13.897Z,79.16
2019-03-03T22:04:44.756Z,78.79
2019-03-03T22:07:15.232Z,77.97
2019-03-03T22:09:48.617Z,78.25
2019-03-03T22:12:18.958Z,77.94
2019-03-03T22:14:50.329Z,76.38
2019-03-03T22:17:20.626Z,75.48
2019-03-03T22:19:50.829Z,75.31
2019-03-03T22:22:20.953Z,74.58
2019-03-03T22:24:51.437Z,74.10
2019-03-03T22:27:21.560Z,73.87
2019-03-03T22:29:51.722Z,74.68
2019-03-03T22:32:21.921Z,73.40
2019-03-03T22:34:52.268Z,73.16
2019-03-03T22:37:22.403Z,72.88
2019-03-03T22:39:52.808Z,72.67
2019-03-03T22:42:22.901Z,73.14
2019-03-03T22:44:53.035Z,73.25
2019-03-03T22:47:23.151Z,73.44
2019-03-03T22:49:53.294Z,73.95
2019-03-03T22:52:23.421Z,74.03
2019-03-03T22:54:53.855Z,73.23
2019-03-03T22:57:23.996Z,74.51
2019-03-03T22:59:54.116Z,75.20
2019-03-03T23:02:24.492Z,75.66
2019-03-03T23:05:12.122Z,76.39
2019-03-03T23:07:55.493Z,77.09
2019-03-03T23:11:17.847Z,77.75
2019-03-03T23:14:26.086Z,77.93
2019-03-03T23:17:42.891Z,77.93
2019-03-03T23:20:23.773Z,78.56
2019-03-03T23:23:24.584Z,79.27
2019-03-03T23:25:54.946Z,79.12
2019-03-03T23:28:25.779Z,79.58
2019-03-03T23:30:58.210Z,79.77
2019-03-03T23:33:28.407Z,81.03
2019-03-03T23:35:58.631Z,80.69
2019-03-03T23:38:28.785Z,80.66
2019-03-03T23:41:05.378Z,80.45
2019-03-03T23:43:35.635Z,80.75
2019-03-03T23:46:05.791Z,81.22
2019-03-03T23:48:36.398Z,81.54
2019-03-03T23:51:06.522Z,81.61
2019-03-03T23:53:36.663Z,81.24
2019-03-03T23:56:09.188Z,81.76
2019-03-03T23:58:39.286Z,81.91
